Hlavní strana
METAR-TAF:

METAR-TAF

Letiště :

Mezinárodní letiště Sunan

Pchjongjang, Severní Korea

zeměpisná šířka: 39-02N, zeměpisná délka: 125-47E, výška: 36 m

METAR: chybějící

Čas: 03:39 (19:09 UTC)

Předpověď počasí

Zpráva byla vytvořena před 14 hodinami a 39 minutami, v 04:30 UTC
Předpověď platná od 15 v 06 UTC do 16 v 06 UTC
Severovýchodní vítr 8 kt
Viditelnost 10 km a více
Oblačno až skoro zataženo ve výšce 2700 ft
Dočasný
od 15 v 06 UTC do 15 v 12 UTC
Viditelnost: 6000 m
Skoro jasno ve výšce 1700 ft, Cumulonimbus.
Oblačno až skoro zataženo ve výšce 2000 ft
slabé dešťové přeháňky
Změna
od 16 v 00 UTC do 16 v 02 UTC
Viditelnost 10 km a více
Žádná oblačnost pod 1500 m, nevyskytují se cumulonimby.

TAF: ZKPY 150430Z 1506/1606 05004MPS 9999 BKN027 TX31/1507Z TN24/1521Z TEMPO 1506/1512 6000 -SHRA FEW017CB BKN020 BECMG 1600/1602 CAVOK

Stav a předpovědi počasí z více než 4 000 letišť (zprávy METAR a TAF).

Červené a žluté tečky na mapě představují dostupné meteorologické stanice.

Když kurzor umístíte na tečku, zobrazí se název stanice.

Pak kliknutím zobrazíte stav a předpověď počasí.

Chcete-li změnit mapu, kliknutím na zelené tlačítko se znaménkem +mapu přiblížíte, kliknutím na zelené tlačítko se znaménkem – mapu oddálíte a kliknutím na zelené šipky přejdete na sousední mapy.


METAR-TAF: